Time;durP1;ratioP1;P1;durP2;ratioP2;P2;SDS_P1;SDS_P2;PMS_P1;PMS_P2;Temp;Humidity;BMP_temperature;BMP_pressure;BME280_temperature;BME280_humidity;BME280_pressure;Samples;Min_cycle;Max_cycle;Signal;HPM_P1;HPM_P2
2024/03/23 00:01:24;;;;;;;3.97;2.70;;;23.10;55.50;;;;;;4992703;28;20421;-69
2024/03/23 00:03:50;;;;;;;3.10;2.80;;;23.10;55.60;;;;;;4992565;28;20423;-69
2024/03/23 00:06:18;;;;;;;3.00;2.47;;;23.10;55.50;;;;;;4992455;28;20454;-69
2024/03/23 00:08:44;;;;;;;2.87;2.63;;;23.10;55.50;;;;;;4992584;28;20796;-69
2024/03/23 00:11:11;;;;;;;3.83;2.60;;;23.10;55.50;;;;;;4992777;28;20439;-69
2024/03/23 00:13:37;;;;;;;3.30;2.93;;;23.10;55.50;;;;;;4992305;28;20833;-68
2024/03/23 00:16:04;;;;;;;3.70;3.30;;;23.10;55.60;;;;;;4992592;28;20416;-68
2024/03/23 00:18:30;;;;;;;3.20;2.60;;;23.10;55.50;;;;;;4992670;28;20409;-68
2024/03/23 00:20:58;;;;;;;2.53;2.30;;;23.10;55.50;;;;;;4992674;28;20432;-69
2024/03/23 00:23:26;;;;;;;2.70;2.20;;;23.10;55.50;;;;;;4992387;28;20416;-69
2024/03/23 00:25:53;;;;;;;3.40;2.40;;;23.10;55.50;;;;;;4974615;28;20463;-69
2024/03/23 00:28:19;;;;;;;3.37;2.90;;;23.10;55.50;;;;;;4992430;28;20955;-69
2024/03/23 00:30:46;;;;;;;3.30;2.77;;;23.10;55.60;;;;;;4992279;28;20479;-69
2024/03/23 00:33:13;;;;;;;2.70;2.17;;;23.10;55.50;;;;;;4992153;28;20460;-68
2024/03/23 00:35:40;;;;;;;4.03;2.83;;;23.10;55.60;;;;;;4992411;28;20420;-69
2024/03/23 00:38:07;;;;;;;3.20;2.40;;;23.10;55.50;;;;;;4992263;28;20903;-69
2024/03/23 00:40:33;;;;;;;2.90;2.50;;;23.10;55.50;;;;;;4992121;28;20432;-68
2024/03/23 00:43:00;;;;;;;5.13;3.10;;;23.10;55.50;;;;;;4992208;28;20412;-68
2024/03/23 00:45:26;;;;;;;2.60;2.40;;;23.10;55.60;;;;;;4991880;28;20412;-69
2024/03/23 00:47:53;;;;;;;2.87;1.90;;;23.10;55.50;;;;;;4992109;28;20419;-68
2024/03/23 00:50:19;;;;;;;4.37;2.77;;;23.10;55.50;;;;;;4991837;28;20459;-69
2024/03/23 00:52:46;;;;;;;3.90;2.40;;;23.10;55.60;;;;;;4992012;28;20413;-68
2024/03/23 00:55:11;;;;;;;2.90;2.50;;;23.10;55.60;;;;;;4992158;28;20467;-68
2024/03/23 00:57:37;;;;;;;3.67;2.17;;;23.10;55.60;;;;;;4992295;28;20420;-68
2024/03/23 01:00:05;;;;;;;3.13;2.37;;;23.10;55.60;;;;;;4991717;28;20201;-68
2024/03/23 01:02:34;;;;;;;3.10;2.33;;;23.10;55.60;;;;;;4991928;28;20193;-69
2024/03/23 01:04:59;;;;;;;3.17;2.00;;;23.00;55.50;;;;;;4992035;28;20496;-67
2024/03/23 01:07:25;;;;;;;3.37;2.30;;;23.00;55.50;;;;;;4991896;28;20452;-69
2024/03/23 01:09:52;;;;;;;2.60;2.40;;;23.00;55.50;;;;;;4992148;28;20197;-67
2024/03/23 01:12:17;;;;;;;2.50;2.20;;;23.00;55.60;;;;;;4992025;28;20240;-69
2024/03/23 01:14:43;;;;;;;2.40;2.07;;;23.00;55.50;;;;;;4991707;28;20962;-69
2024/03/23 01:17:08;;;;;;;2.70;2.20;;;23.10;55.60;;;;;;4991748;28;20185;-68
2024/03/23 01:19:34;;;;;;;2.80;2.20;;;23.00;55.60;;;;;;4991937;28;20254;-69
2024/03/23 01:22:00;;;;;;;2.73;2.10;;;23.00;55.60;;;;;;4991549;28;20208;-66
2024/03/23 01:24:25;;;;;;;3.17;2.37;;;23.00;55.60;;;;;;4991505;28;20216;-69
2024/03/23 01:26:51;;;;;;;2.20;2.00;;;23.00;55.60;;;;;;4991608;28;20188;-68
2024/03/23 01:29:16;;;;;;;2.93;2.50;;;23.00;55.60;;;;;;4991757;28;20184;-69
2024/03/23 01:31:42;;;;;;;2.57;2.20;;;23.00;55.60;;;;;;4991668;28;20188;-67
2024/03/23 01:34:08;;;;;;;3.57;2.60;;;23.00;55.60;;;;;;4991890;28;20227;-68
2024/03/23 01:36:33;;;;;;;2.67;2.00;;;23.00;55.60;;;;;;4991216;28;20173;-68
2024/03/23 01:38:59;;;;;;;3.43;2.00;;;23.00;55.60;;;;;;4991346;28;20181;-68
2024/03/23 01:41:25;;;;;;;3.87;2.50;;;23.00;55.60;;;;;;4973850;28;20280;-68
2024/03/23 01:43:50;;;;;;;3.33;2.77;;;23.00;55.60;;;;;;4991324;28;20180;-68
2024/03/23 01:46:16;;;;;;;2.10;1.70;;;23.00;55.60;;;;;;4993673;28;20181;-68
2024/03/23 01:48:43;;;;;;;2.50;2.30;;;23.00;55.60;;;;;;4995369;28;20200;-68
2024/03/23 01:51:08;;;;;;;3.33;2.00;;;23.00;55.60;;;;;;4995177;28;20451;-68
2024/03/23 01:53:34;;;;;;;3.10;2.07;;;23.00;55.60;;;;;;4995145;28;20510;-68
2024/03/23 01:56:02;;;;;;;3.30;2.27;;;23.00;55.60;;;;;;4995074;28;20420;-68
2024/03/23 01:58:27;;;;;;;1.90;1.70;;;23.00;55.60;;;;;;4995257;28;20195;-68
2024/03/23 02:00:53;;;;;;;2.90;2.40;;;23.00;55.60;;;;;;4995440;28;20440;-69
2024/03/23 02:03:24;;;;;;;2.77;2.03;;;23.00;55.60;;;;;;4995041;28;20184;-69
2024/03/23 02:05:50;;;;;;;2.37;1.80;;;23.00;55.60;;;;;;4995183;28;20223;-68
2024/03/23 02:08:17;;;;;;;2.00;1.80;;;23.00;55.60;;;;;;4994921;28;20790;-69
2024/03/23 02:10:43;;;;;;;2.27;1.93;;;23.00;55.60;;;;;;4994854;28;20432;-69
2024/03/23 02:13:09;;;;;;;3.20;2.03;;;23.00;55.60;;;;;;4995300;28;20774;-68
2024/03/23 02:15:35;;;;;;;2.87;2.30;;;23.00;55.60;;;;;;4994925;28;20177;-68
2024/03/23 02:18:00;;;;;;;2.97;2.60;;;23.00;55.60;;;;;;4994695;28;20416;-68
2024/03/23 02:20:26;;;;;;;2.30;2.00;;;23.00;55.60;;;;;;4994610;28;20813;-69
2024/03/23 02:22:53;;;;;;;2.60;2.20;;;23.00;55.70;;;;;;4994325;28;20528;-69
2024/03/23 02:25:19;;;;;;;2.57;2.00;;;23.00;55.70;;;;;;4995109;28;20216;-69
2024/03/23 02:27:44;;;;;;;2.33;1.90;;;23.00;55.60;;;;;;4994675;28;20416;-68
2024/03/23 02:30:10;;;;;;;1.90;1.73;;;23.00;55.60;;;;;;4994330;28;20287;-68
2024/03/23 02:32:36;;;;;;;2.50;1.80;;;22.90;55.60;;;;;;4994728;28;20193;-68
2024/03/23 02:35:01;;;;;;;2.80;1.80;;;22.90;55.60;;;;;;4994263;28;20196;-68
2024/03/23 02:37:27;;;;;;;2.37;2.00;;;22.90;55.50;;;;;;4977090;28;20268;-69
2024/03/23 02:39:52;;;;;;;2.20;1.93;;;22.90;55.60;;;;;;4994390;28;20865;-69
2024/03/23 02:42:18;;;;;;;2.10;1.83;;;22.90;55.60;;;;;;4994417;28;20188;-69
2024/03/23 02:44:45;;;;;;;2.20;2.00;;;22.90;55.60;;;;;;4994328;28;20600;-69
2024/03/23 02:47:10;;;;;;;3.30;2.13;;;23.00;55.70;;;;;;4994370;28;20793;-68
2024/03/23 02:49:36;;;;;;;2.73;2.23;;;22.90;55.60;;;;;;4960232;28;20468;-69
2024/03/23 02:52:01;;;;;;;2.87;2.20;;;23.00;55.70;;;;;;4994651;28;20184;-69
2024/03/23 02:54:27;;;;;;;2.23;2.03;;;22.90;55.60;;;;;;4994127;28;20255;-68
2024/03/23 02:56:52;;;;;;;2.50;2.10;;;23.00;55.60;;;;;;4992727;28;20169;-68
2024/03/23 02:59:18;;;;;;;2.80;2.00;;;23.00;55.70;;;;;;4993840;28;20228;-67
2024/03/23 03:01:43;;;;;;;2.40;1.83;;;23.00;55.60;;;;;;4994231;28;20177;-69
2024/03/23 03:04:09;;;;;;;2.87;2.00;;;23.00;55.60;;;;;;4994189;28;20212;-69
2024/03/23 03:06:35;;;;;;;2.60;2.13;;;23.00;55.60;;;;;;4994096;28;20667;-67
2024/03/23 03:09:00;;;;;;;2.10;1.90;;;23.00;55.60;;;;;;4994171;28;20241;-68
2024/03/23 03:11:26;;;;;;;3.17;2.20;;;23.00;55.60;;;;;;4993751;28;20639;-67
2024/03/23 03:13:52;;;;;;;2.10;1.90;;;23.00;55.60;;;;;;4975976;28;20211;-68
2024/03/23 03:16:17;;;;;;;3.30;2.13;;;23.00;55.60;;;;;;4994004;28;20197;-67
2024/03/23 03:18:43;;;;;;;1.90;1.80;;;23.00;55.60;;;;;;4993384;28;20203;-69
2024/03/23 03:21:10;;;;;;;1.87;1.77;;;23.00;55.60;;;;;;4993800;28;20204;-67
2024/03/23 03:23:39;;;;;;;3.40;2.53;;;23.00;55.60;;;;;;4993927;28;20427;-69
2024/03/23 03:26:05;;;;;;;2.10;1.70;;;23.00;55.60;;;;;;4993443;28;20424;-69
2024/03/23 03:28:32;;;;;;;2.53;1.83;;;23.00;55.60;;;;;;4993496;28;20430;-69
2024/03/23 03:31:01;;;;;;;2.53;2.03;;;23.00;55.60;;;;;;4976101;28;21092;-68
2024/03/23 03:33:27;;;;;;;2.20;2.00;;;23.00;55.50;;;;;;4993162;28;20966;-68
2024/03/23 03:35:53;;;;;;;1.93;1.70;;;23.00;55.50;;;;;;4993253;28;20419;-68
2024/03/23 03:38:19;;;;;;;2.50;2.00;;;23.00;55.60;;;;;;4993406;28;20911;-69
2024/03/23 03:40:45;;;;;;;1.97;1.77;;;23.00;55.50;;;;;;4993340;28;20440;-68
2024/03/23 03:43:10;;;;;;;1.43;1.33;;;23.00;55.50;;;;;;4993168;28;20173;-68
2024/03/23 03:45:36;;;;;;;1.63;1.53;;;23.00;55.50;;;;;;4992876;28;20185;-69
2024/03/23 03:48:02;;;;;;;5.47;2.27;;;23.00;55.50;;;;;;4993426;28;20404;-68
2024/03/23 03:50:28;;;;;;;1.93;1.60;;;23.00;55.50;;;;;;4993116;28;20775;-68
2024/03/23 03:52:53;;;;;;;2.00;1.70;;;23.00;55.50;;;;;;4993035;28;20179;-67
2024/03/23 03:55:19;;;;;;;2.13;1.93;;;23.00;55.50;;;;;;4992870;28;20239;-68
2024/03/23 03:57:44;;;;;;;2.20;1.90;;;23.00;55.50;;;;;;4992586;28;20184;-68
2024/03/23 04:00:13;;;;;;;1.80;1.57;;;23.10;55.60;;;;;;4993000;28;20193;-68
2024/03/23 04:02:39;;;;;;;1.60;1.20;;;23.00;55.50;;;;;;4992534;28;20185;-68
2024/03/23 04:05:05;;;;;;;2.23;1.87;;;23.00;55.50;;;;;;4992805;28;20422;-68
2024/03/23 04:07:31;;;;;;;2.43;1.90;;;23.00;55.50;;;;;;4992361;28;20656;-69
2024/03/23 04:09:57;;;;;;;1.60;1.50;;;23.00;55.50;;;;;;4992643;28;20443;-69
2024/03/23 04:12:23;;;;;;;2.10;1.83;;;23.00;55.50;;;;;;4992929;28;20208;-68
2024/03/23 04:14:49;;;;;;;2.47;1.83;;;23.10;55.60;;;;;;4992247;28;20205;-68
2024/03/23 04:17:14;;;;;;;2.13;1.90;;;23.00;55.50;;;;;;4992391;28;20427;-68
2024/03/23 04:19:40;;;;;;;2.00;1.70;;;23.00;55.50;;;;;;4992328;28;20276;-69
2024/03/23 04:22:06;;;;;;;2.60;2.20;;;23.10;55.50;;;;;;4974719;28;20223;-68
2024/03/23 04:24:32;;;;;;;2.03;1.60;;;23.00;55.50;;;;;;4992457;28;20455;-68
2024/03/23 04:26:58;;;;;;;2.20;1.90;;;23.10;55.60;;;;;;4974919;28;20188;-68
2024/03/23 04:29:23;;;;;;;2.40;1.70;;;23.10;55.50;;;;;;4992589;28;20439;-68
2024/03/23 04:31:49;;;;;;;2.30;1.67;;;23.10;55.50;;;;;;4992079;28;20203;-69
2024/03/23 04:34:14;;;;;;;2.90;1.90;;;23.10;55.50;;;;;;4992644;28;20208;-68
2024/03/23 04:36:40;;;;;;;2.20;1.90;;;23.10;55.50;;;;;;4992077;28;20175;-69
2024/03/23 04:39:08;;;;;;;2.17;1.70;;;23.10;55.50;;;;;;4992089;28;20176;-68
2024/03/23 04:41:35;;;;;;;2.30;1.70;;;23.00;55.50;;;;;;4992054;28;20173;-67
2024/03/23 04:44:00;;;;;;;1.77;1.50;;;23.10;55.50;;;;;;4992143;28;20847;-68
2024/03/23 04:46:26;;;;;;;2.33;1.80;;;23.10;55.50;;;;;;4992064;28;20408;-68
2024/03/23 04:48:52;;;;;;;1.53;1.33;;;23.10;55.50;;;;;;4992340;28;20181;-68
2024/03/23 04:51:22;;;;;;;2.37;1.60;;;23.10;55.60;;;;;;4974255;28;20513;-68
2024/03/23 04:53:48;;;;;;;2.13;1.63;;;23.10;55.50;;;;;;4992203;28;20636;-69
2024/03/23 04:56:14;;;;;;;2.70;1.80;;;23.10;55.50;;;;;;4992664;28;20942;-69
2024/03/23 04:58:40;;;;;;;1.77;1.43;;;23.10;55.50;;;;;;4991646;28;20252;-69
2024/03/23 05:01:06;;;;;;;2.20;2.00;;;23.10;55.60;;;;;;4991677;28;20579;-68
2024/03/23 05:03:32;;;;;;;1.90;1.70;;;23.10;55.50;;;;;;4991618;28;20608;-69
2024/03/23 05:05:58;;;;;;;1.50;1.40;;;23.10;55.50;;;;;;4991634;28;20709;-68
2024/03/23 05:08:24;;;;;;;1.67;1.57;;;23.10;55.50;;;;;;4991529;28;20177;-68
2024/03/23 05:10:49;;;;;;;2.70;1.80;;;23.10;55.50;;;;;;4991278;28;21015;-68
2024/03/23 05:13:15;;;;;;;2.17;1.60;;;23.10;55.50;;;;;;4991473;28;20268;-68
2024/03/23 05:15:40;;;;;;;1.70;1.40;;;23.10;55.50;;;;;;4991261;28;20177;-69
2024/03/23 05:18:06;;;;;;;2.00;1.67;;;23.10;55.50;;;;;;4991006;28;20188;-69
2024/03/23 05:20:32;;;;;;;1.70;1.10;;;23.10;55.50;;;;;;4989632;28;20193;-69
2024/03/23 05:22:58;;;;;;;3.27;1.90;;;23.10;55.50;;;;;;4995801;28;20423;-68
2024/03/23 05:25:23;;;;;;;2.07;1.50;;;23.10;55.50;;;;;;4995707;28;20181;-68
2024/03/23 05:27:49;;;;;;;2.23;1.97;;;23.10;55.50;;;;;;4995425;28;20192;-68
2024/03/23 05:30:15;;;;;;;1.73;1.57;;;23.10;55.50;;;;;;4996754;28;20205;-69
2024/03/23 05:32:41;;;;;;;1.90;1.57;;;23.10;55.50;;;;;;4995600;28;20917;-69
2024/03/23 05:35:09;;;;;;;1.77;1.40;;;23.10;55.50;;;;;;4995561;28;20224;-68
2024/03/23 05:37:34;;;;;;;1.60;1.40;;;23.10;55.50;;;;;;4995190;28;20499;-69
2024/03/23 05:40:00;;;;;;;1.50;1.30;;;23.10;55.50;;;;;;4995447;28;20491;-68
2024/03/23 05:42:26;;;;;;;1.53;1.43;;;23.10;55.50;;;;;;4995094;28;20173;-68
2024/03/23 05:44:52;;;;;;;1.90;1.70;;;23.10;55.50;;;;;;4995362;28;20423;-68
2024/03/23 05:47:17;;;;;;;1.70;1.60;;;23.10;55.50;;;;;;4994933;28;20706;-69
2024/03/23 05:49:43;;;;;;;2.00;1.30;;;23.10;55.50;;;;;;4995122;28;20223;-70
2024/03/23 05:52:12;;;;;;;1.50;1.30;;;23.00;55.40;;;;;;4995103;28;20169;-68
2024/03/23 05:54:38;;;;;;;2.07;1.40;;;23.10;55.40;;;;;;4977058;28;20238;-69
2024/03/23 05:57:04;;;;;;;1.70;1.30;;;23.10;55.40;;;;;;4994693;28;20502;-68
2024/03/23 05:59:31;;;;;;;1.70;1.60;;;23.00;55.40;;;;;;4995033;28;20192;-68
2024/03/23 06:01:56;;;;;;;1.93;1.43;;;23.00;55.40;;;;;;4977159;28;20431;-68
2024/03/23 06:04:22;;;;;;;1.80;1.70;;;23.00;55.40;;;;;;4994696;28;20428;-68
2024/03/23 06:06:48;;;;;;;1.97;1.70;;;23.00;55.40;;;;;;4994859;28;20216;-67
2024/03/23 06:09:14;;;;;;;2.03;1.50;;;23.00;55.40;;;;;;4994974;28;20450;-68
2024/03/23 06:11:39;;;;;;;1.57;1.47;;;23.00;55.50;;;;;;4977117;28;20194;-69
2024/03/23 06:14:05;;;;;;;1.83;1.53;;;23.00;55.50;;;;;;4994416;28;20193;-69
2024/03/23 06:16:31;;;;;;;1.60;1.30;;;23.00;55.50;;;;;;4994723;28;20177;-69
2024/03/23 06:18:58;;;;;;;1.73;1.40;;;23.00;55.60;;;;;;4994714;28;20510;-67
2024/03/23 06:21:24;;;;;;;1.40;1.20;;;23.00;55.60;;;;;;4994846;28;20416;-68
2024/03/23 06:23:52;;;;;;;1.47;1.37;;;23.00;55.60;;;;;;4994411;28;20922;-69
2024/03/23 06:26:19;;;;;;;1.40;1.30;;;23.00;55.60;;;;;;4994379;28;20692;-69
2024/03/23 06:28:44;;;;;;;1.90;1.70;;;23.00;55.60;;;;;;4995170;28;20451;-69
2024/03/23 06:31:10;;;;;;;2.03;1.60;;;23.00;55.60;;;;;;4976789;28;20491;-71
2024/03/23 06:33:36;;;;;;;4.00;2.97;;;23.00;55.60;;;;;;4997109;28;20201;-72
2024/03/23 06:36:03;;;;;;;8.37;6.70;;;23.00;55.60;;;;;;4978647;28;20177;-71
2024/03/23 06:38:28;;;;;;;9.27;7.33;;;23.00;55.50;;;;;;4996578;28;20660;-72
2024/03/23 06:40:54;;;;;;;7.07;5.37;;;23.00;55.30;;;;;;4997148;28;20467;-72
2024/03/23 06:43:19;;;;;;;5.93;5.33;;;23.00;55.20;;;;;;4996864;28;20227;-71
2024/03/23 06:45:54;;;;;;;9.07;7.57;;;23.00;55.30;;;;;;4996647;28;20176;-71
2024/03/23 06:48:20;;;;;;;7.97;7.10;;;23.00;55.30;;;;;;4996614;28;20165;-71
2024/03/23 06:50:47;;;;;;;9.83;7.00;;;23.00;55.30;;;;;;4996409;28;20456;-71
2024/03/23 06:53:13;;;;;;;7.70;6.63;;;23.00;55.30;;;;;;4996220;28;20415;-71
2024/03/23 06:55:39;;;;;;;10.83;9.33;;;23.00;55.30;;;;;;4996450;28;20535;-70
2024/03/23 06:58:04;;;;;;;11.40;9.33;;;23.00;55.30;;;;;;4996514;28;20983;-72
2024/03/23 07:00:31;;;;;;;12.83;9.80;;;23.00;55.30;;;;;;4996050;28;20240;-71
2024/03/23 07:02:57;;;;;;;9.23;8.20;;;23.00;55.30;;;;;;4996342;28;20177;-71
2024/03/23 07:05:23;;;;;;;14.20;9.30;;;23.00;55.30;;;;;;4996670;28;20431;-72
2024/03/23 07:07:48;;;;;;;8.83;7.93;;;23.00;55.20;;;;;;4996019;28;20550;-71
2024/03/23 07:10:14;;;;;;;11.10;9.57;;;23.00;55.10;;;;;;5010806;28;20201;-71
2024/03/23 07:12:40;;;;;;;11.80;9.13;;;23.00;55.00;;;;;;4996050;28;20184;-70
2024/03/23 07:15:06;;;;;;;11.80;8.97;;;23.00;55.00;;;;;;4996344;28;20193;-71
2024/03/23 07:17:32;;;;;;;8.87;8.03;;;23.00;55.00;;;;;;4996065;28;20558;-71
2024/03/23 07:19:58;;;;;;;10.40;8.60;;;23.00;55.00;;;;;;4996012;28;20981;-72
2024/03/23 07:22:24;;;;;;;10.60;9.33;;;23.00;55.00;;;;;;4995799;28;20463;-71
2024/03/23 07:24:49;;;;;;;10.87;9.03;;;23.00;55.00;;;;;;4978466;28;20648;-71
2024/03/23 07:27:15;;;;;;;8.57;7.70;;;23.00;55.00;;;;;;4995474;28;20176;-70
2024/03/23 07:29:40;;;;;;;11.30;10.10;;;23.00;55.00;;;;;;4995389;28;20588;-69
2024/03/23 07:32:06;;;;;;;10.30;8.57;;;23.00;55.00;;;;;;4995154;28;20280;-71
2024/03/23 07:34:32;;;;;;;11.90;8.27;;;23.00;55.00;;;;;;4995120;28;20208;-71
2024/03/23 07:36:57;;;;;;;8.40;7.57;;;23.00;55.00;;;;;;4995305;28;20188;-71
2024/03/23 07:39:23;;;;;;;9.33;7.40;;;23.00;55.00;;;;;;4995142;28;20197;-71
2024/03/23 07:41:48;;;;;;;8.90;8.00;;;23.00;55.00;;;;;;4995520;28;20640;-72
2024/03/23 07:44:14;;;;;;;9.63;8.73;;;23.00;55.00;;;;;;4994819;28;20185;-71
2024/03/23 07:46:39;;;;;;;11.80;10.20;;;22.90;54.90;;;;;;4995582;28;20184;-71
2024/03/23 07:49:06;;;;;;;10.97;9.80;;;22.90;54.90;;;;;;4995262;28;20748;-71
2024/03/23 07:51:32;;;;;;;13.77;11.30;;;22.90;55.00;;;;;;4995083;28;20436;-71
2024/03/23 07:53:58;;;;;;;14.20;11.23;;;23.00;55.00;;;;;;4995358;28;20201;-70
2024/03/23 07:56:24;;;;;;;10.03;8.57;;;22.90;55.00;;;;;;4995326;28;20435;-71
2024/03/23 07:58:49;;;;;;;9.67;8.67;;;22.90;55.10;;;;;;4995082;28;20173;-71
2024/03/23 08:01:16;;;;;;;8.70;7.50;;;23.00;55.20;;;;;;4994965;28;20193;-71
2024/03/23 08:03:43;;;;;;;10.90;8.30;;;22.90;55.10;;;;;;4995612;28;20227;-70
2024/03/23 08:06:13;;;;;;;10.70;9.10;;;23.00;55.30;;;;;;4995038;28;20412;-71
2024/03/23 08:08:39;;;;;;;10.17;9.07;;;23.00;55.30;;;;;;4995469;28;20439;-71
2024/03/23 08:11:05;;;;;;;11.13;9.20;;;23.00;55.30;;;;;;4976353;28;20444;-71
2024/03/23 08:13:31;;;;;;;9.70;8.53;;;23.00;55.30;;;;;;4994431;28;20770;-70
2024/03/23 08:15:58;;;;;;;8.97;7.77;;;23.00;55.30;;;;;;4994271;28;20419;-70
2024/03/23 08:18:24;;;;;;;9.23;8.23;;;23.00;55.30;;;;;;4994221;28;20181;-69
2024/03/23 08:20:57;;;;;;;10.37;9.10;;;23.00;55.30;;;;;;4993711;28;20439;-70
2024/03/23 08:23:27;;;;;;;9.53;8.07;;;23.00;55.30;;;;;;4993873;28;20173;-71
2024/03/23 08:25:58;;;;;;;12.67;8.53;;;23.00;55.30;;;;;;4993552;28;20496;-68
2024/03/23 08:28:24;;;;;;;10.70;7.53;;;23.00;55.30;;;;;;4993448;28;20408;-70
2024/03/23 08:30:49;;;;;;;11.50;8.00;;;23.00;55.30;;;;;;4994173;28;20785;-70
2024/03/23 08:33:16;;;;;;;8.43;7.57;;;23.00;55.30;;;;;;4975711;28;20193;-69
2024/03/23 08:35:41;;;;;;;7.50;6.67;;;23.00;55.30;;;;;;4993586;28;20191;-69
2024/03/23 08:38:07;;;;;;;7.90;6.90;;;23.00;55.30;;;;;;4993196;28;20602;-70
2024/03/23 08:40:33;;;;;;;8.50;7.40;;;23.00;55.30;;;;;;4993487;28;20786;-70
2024/03/23 08:42:59;;;;;;;7.93;6.20;;;23.00;55.30;;;;;;4993382;28;20181;-69
2024/03/23 08:45:25;;;;;;;10.03;7.07;;;23.00;55.30;;;;;;4993555;28;20181;-69
2024/03/23 08:47:51;;;;;;;9.90;7.90;;;23.00;55.30;;;;;;4993727;28;20180;-70
2024/03/23 08:50:17;;;;;;;9.40;6.60;;;23.00;55.30;;;;;;4993041;28;20962;-70
2024/03/23 08:52:42;;;;;;;9.20;7.77;;;23.00;55.30;;;;;;4993088;28;20419;-70
2024/03/23 08:55:09;;;;;;;9.20;6.87;;;23.00;55.30;;;;;;4993303;28;20735;-71
2024/03/23 08:57:35;;;;;;;6.33;5.70;;;23.00;55.30;;;;;;4993547;28;20173;-70
2024/03/23 09:00:01;;;;;;;5.50;4.50;;;23.00;55.30;;;;;;4993447;28;20432;-67
2024/03/23 09:02:26;;;;;;;6.60;5.50;;;23.00;55.30;;;;;;4992945;28;20619;-68
2024/03/23 09:04:52;;;;;;;7.80;6.10;;;23.00;55.20;;;;;;4993021;28;20657;-69
2024/03/23 09:07:18;;;;;;;6.30;5.70;;;23.00;55.30;;;;;;4993380;28;20180;-68
2024/03/23 09:09:43;;;;;;;7.83;6.23;;;23.00;55.30;;;;;;4993281;28;20201;-70
2024/03/23 09:12:09;;;;;;;7.13;5.90;;;23.00;55.30;;;;;;4993267;28;20183;-68
2024/03/23 09:14:34;;;;;;;6.83;4.80;;;23.00;55.30;;;;;;4992563;28;20209;-70
2024/03/23 09:17:00;;;;;;;6.00;5.40;;;23.00;55.30;;;;;;4992081;28;20671;-67
2024/03/23 09:19:29;;;;;;;6.47;5.77;;;23.00;55.30;;;;;;4991336;28;20200;-69
2024/03/23 09:21:55;;;;;;;6.90;5.63;;;23.00;55.30;;;;;;4991714;28;20231;-67
2024/03/23 09:24:21;;;;;;;7.20;5.10;;;23.00;55.30;;;;;;4991458;28;20989;-68
2024/03/23 09:26:46;;;;;;;7.47;5.80;;;23.00;55.40;;;;;;4991549;28;20424;-68
2024/03/23 09:29:12;;;;;;;5.57;4.90;;;23.00;55.40;;;;;;4992182;28;20177;-67
2024/03/23 09:31:38;;;;;;;5.60;5.00;;;23.00;55.40;;;;;;4991749;28;20207;-69
2024/03/23 09:34:04;;;;;;;8.40;5.30;;;23.00;55.40;;;;;;4990701;28;20506;-69
2024/03/23 09:36:29;;;;;;;7.63;5.30;;;23.00;55.40;;;;;;4991580;28;20949;-68
2024/03/23 09:38:55;;;;;;;6.00;4.37;;;23.00;55.40;;;;;;4974966;28;20235;-68
2024/03/23 09:41:21;;;;;;;5.93;5.20;;;23.00;55.40;;;;;;4991512;28;20196;-66
2024/03/23 09:43:48;;;;;;;8.93;5.03;;;23.10;55.50;;;;;;4991901;28;20583;-67
2024/03/23 09:46:14;;;;;;;5.60;4.70;;;23.00;55.40;;;;;;4991682;28;20652;-69
2024/03/23 09:48:40;;;;;;;6.83;4.50;;;23.00;55.40;;;;;;4991836;28;20521;-68
2024/03/23 09:51:08;;;;;;;6.90;4.70;;;23.00;55.40;;;;;;4991719;28;20459;-68
2024/03/23 09:53:34;;;;;;;6.10;4.90;;;23.10;55.50;;;;;;4991579;28;20443;-68
2024/03/23 09:56:00;;;;;;;4.60;4.20;;;23.10;55.40;;;;;;4991484;28;20408;-68
2024/03/23 09:58:25;;;;;;;4.97;4.20;;;23.10;55.50;;;;;;4991456;28;20345;-67
2024/03/23 10:00:51;;;;;;;4.90;4.40;;;23.10;55.50;;;;;;4991195;28;20233;-67
2024/03/23 10:03:17;;;;;;;7.43;5.00;;;23.10;55.40;;;;;;4991727;28;20201;-68
2024/03/23 10:05:43;;;;;;;6.93;4.37;;;23.10;55.40;;;;;;4991573;28;20192;-68
2024/03/23 10:08:15;;;;;;;6.80;3.97;;;23.10;55.40;;;;;;4994635;28;20256;-68
2024/03/23 10:10:44;;;;;;;4.17;3.77;;;23.10;55.40;;;;;;4994770;28;20428;-68
2024/03/23 10:13:12;;;;;;;7.47;5.60;;;23.10;55.50;;;;;;4994849;28;20412;-68
2024/03/23 10:15:38;;;;;;;6.30;4.57;;;23.10;55.50;;;;;;4994555;28;20463;-68
2024/03/23 10:18:32;;;;;;;4.97;4.43;;;23.10;55.40;;;;;;4994688;28;20940;-69
2024/03/23 10:21:11;;;;;;;6.70;4.17;;;23.10;55.50;;;;;;4991928;28;20486;-67
2024/03/23 10:23:41;;;;;;;5.83;4.33;;;23.10;55.50;;;;;;4994760;28;20412;-67
2024/03/23 10:26:15;;;;;;;5.47;4.70;;;23.10;55.50;;;;;;4994780;28;20416;-68
2024/03/23 10:28:51;;;;;;;4.40;3.70;;;23.10;55.50;;;;;;4994707;28;20426;-69
2024/03/23 10:31:17;;;;;;;4.60;3.97;;;23.10;55.50;;;;;;4994636;28;20442;-69
2024/03/23 10:33:49;;;;;;;6.50;4.57;;;23.10;55.50;;;;;;4994330;28;20460;-68
2024/03/23 10:36:15;;;;;;;4.47;4.07;;;23.10;55.50;;;;;;4994690;28;20223;-68
2024/03/23 10:38:42;;;;;;;4.03;3.63;;;23.10;55.50;;;;;;4976805;28;20906;-68
2024/03/23 10:41:12;;;;;;;5.20;3.80;;;23.10;55.50;;;;;;4976957;28;20486;-68
2024/03/23 10:43:39;;;;;;;4.77;4.13;;;23.10;55.50;;;;;;4994397;28;20420;-68
2024/03/23 10:46:05;;;;;;;4.30;3.90;;;23.10;55.50;;;;;;4994976;28;20423;-68
2024/03/23 10:48:34;;;;;;;3.87;3.13;;;23.10;55.50;;;;;;4976648;28;20525;-66
2024/03/23 10:51:00;;;;;;;4.40;3.37;;;23.10;55.50;;;;;;4994324;28;20472;-67
2024/03/23 10:53:27;;;;;;;4.80;4.33;;;23.10;55.50;;;;;;4994248;28;20760;-69
2024/03/23 10:55:56;;;;;;;4.63;3.47;;;23.10;55.50;;;;;;4994654;28;21012;-68
2024/03/23 10:58:31;;;;;;;4.63;3.67;;;23.10;55.50;;;;;;4994873;28;20528;-67
2024/03/23 11:00:58;;;;;;;4.93;3.57;;;23.10;55.50;;;;;;4993937;28;20434;-68
2024/03/23 11:03:37;;;;;;;3.87;3.57;;;23.20;55.60;;;;;;4993185;28;20413;-68
2024/03/23 11:06:04;;;;;;;4.10;2.83;;;23.20;55.50;;;;;;4993493;28;20440;-68
2024/03/23 11:08:36;;;;;;;4.80;3.67;;;23.20;55.50;;;;;;4993149;28;20412;-68
2024/03/23 11:11:21;;;;;;;4.87;3.90;;;23.20;55.50;;;;;;4992986;28;20935;-68
2024/03/23 11:13:51;;;;;;;3.40;3.10;;;23.20;55.50;;;;;;4993031;28;20455;-68
2024/03/23 11:16:21;;;;;;;3.73;3.20;;;23.20;55.50;;;;;;4992973;28;20417;-69
2024/03/23 11:18:47;;;;;;;3.73;3.20;;;23.20;55.50;;;;;;4992807;28;20408;-67
2024/03/23 11:21:51;;;;;;;5.03;3.67;;;23.20;56.00;;;;;;4993650;28;20448;-68
2024/03/23 11:24:16;;;;;;;3.60;3.30;;;23.20;55.40;;;;;;4976311;28;20185;-68
2024/03/23 11:26:42;;;;;;;4.90;4.00;;;23.20;55.50;;;;;;4993406;28;20423;-68
2024/03/23 11:29:12;;;;;;;3.70;2.60;;;23.20;55.40;;;;;;4993974;28;20173;-68
2024/03/23 11:31:38;;;;;;;4.03;3.00;;;23.20;55.40;;;;;;4993297;28;20193;-68
2024/03/23 11:34:07;;;;;;;3.13;2.70;;;23.20;55.40;;;;;;4975630;28;20982;-68
2024/03/23 11:36:32;;;;;;;3.80;3.50;;;23.20;55.40;;;;;;4976251;28;20192;-68
2024/03/23 11:38:58;;;;;;;3.87;3.47;;;23.30;55.50;;;;;;4993297;28;20416;-67
2024/03/23 11:41:24;;;;;;;3.90;3.50;;;23.30;55.50;;;;;;4993052;28;20566;-68
2024/03/23 11:43:50;;;;;;;4.17;3.47;;;23.30;56.10;;;;;;4993296;28;20682;-69
2024/03/23 11:46:24;;;;;;;3.40;3.07;;;23.30;55.50;;;;;;4993035;28;20495;-68
2024/03/23 11:48:53;;;;;;;3.13;2.80;;;23.30;55.50;;;;;;4993170;28;20624;-69
2024/03/23 11:51:20;;;;;;;3.53;3.23;;;23.30;55.50;;;;;;4992689;28;20454;-68
2024/03/23 11:53:45;;;;;;;3.03;2.73;;;23.30;55.50;;;;;;4992500;28;20452;-69
2024/03/23 11:56:11;;;;;;;3.73;3.33;;;23.30;55.50;;;;;;4992240;28;20416;-68
2024/03/23 11:58:37;;;;;;;2.83;2.53;;;23.30;55.50;;;;;;4992629;28;20180;-68
2024/03/23 12:01:03;;;;;;;4.33;3.20;;;23.30;55.50;;;;;;4992469;28;20189;-68
2024/03/23 12:03:30;;;;;;;4.13;2.83;;;23.30;55.50;;;;;;4992592;28;20177;-69
2024/03/23 12:05:58;;;;;;;2.93;2.63;;;23.30;55.50;;;;;;4992650;28;20415;-68
2024/03/23 12:08:45;;;;;;;3.40;2.83;;;23.30;55.50;;;;;;4974878;28;20428;-68
2024/03/23 12:11:17;;;;;;;4.10;2.80;;;23.30;55.50;;;;;;4991918;28;20514;-68
2024/03/23 12:13:45;;;;;;;3.73;2.97;;;23.30;55.50;;;;;;4992128;28;20448;-68
2024/03/23 12:16:11;;;;;;;4.13;3.10;;;23.30;55.50;;;;;;4992270;28;20419;-68
2024/03/23 12:18:38;;;;;;;3.87;3.50;;;23.30;55.50;;;;;;4992398;28;20420;-68
2024/03/23 12:21:04;;;;;;;2.90;2.67;;;23.30;55.50;;;;;;4992001;28;20444;-68
2024/03/23 12:23:29;;;;;;;4.33;3.00;;;23.30;55.50;;;;;;4991983;28;20500;-69
2024/03/23 12:25:55;;;;;;;4.67;3.10;;;23.30;55.50;;;;;;4974331;28;20243;-68
2024/03/23 12:28:20;;;;;;;3.03;2.63;;;23.30;55.50;;;;;;4991954;28;20169;-68
2024/03/23 12:30:46;;;;;;;3.47;2.93;;;23.30;55.50;;;;;;4991672;28;20201;-69
2024/03/23 12:33:12;;;;;;;3.00;2.70;;;23.30;55.50;;;;;;4992118;28;20263;-66
2024/03/23 12:35:37;;;;;;;3.23;2.77;;;23.30;55.50;;;;;;4991777;28;20624;-67
2024/03/23 12:38:03;;;;;;;2.70;2.50;;;23.30;55.50;;;;;;4991889;28;20177;-68
2024/03/23 12:40:29;;;;;;;2.90;2.37;;;23.30;55.50;;;;;;4991931;28;20239;-68
2024/03/23 12:42:56;;;;;;;4.70;3.03;;;23.30;55.50;;;;;;4974494;28;20180;-68